createdAt,value
2022-12-31T00:00:29.451Z,12.07
2022-12-31T00:02:30.942Z,12.15
2022-12-31T00:04:32.480Z,12.15
2022-12-31T00:06:35.443Z,12.09
2022-12-31T00:08:36.810Z,12.18
2022-12-31T00:10:41.448Z,12.21
2022-12-31T00:12:43.051Z,12.16
2022-12-31T00:14:44.459Z,12.17
2022-12-31T00:16:45.883Z,12.16
2022-12-31T00:18:50.228Z,12.16
2022-12-31T00:20:51.596Z,12.14
2022-12-31T00:22:58.381Z,12.12
2022-12-31T00:24:59.713Z,12.14
2022-12-31T00:27:01.296Z,12.18
2022-12-31T00:29:04.420Z,12.18
2022-12-31T00:31:17.580Z,12.18
2022-12-31T00:33:19.062Z,12.24
2022-12-31T00:35:20.432Z,12.20
2022-12-31T00:37:21.770Z,12.19
2022-12-31T00:39:23.231Z,12.15
2022-12-31T00:41:25.390Z,12.11
2022-12-31T00:43:26.780Z,12.11
2022-12-31T00:45:28.180Z,12.10
2022-12-31T00:47:29.735Z,12.06
2022-12-31T00:49:31.126Z,12.06
2022-12-31T00:51:33.393Z,12.03
2022-12-31T00:53:35.213Z,12.04
2022-12-31T00:55:36.588Z,12.01
2022-12-31T00:57:37.963Z,12.01
2022-12-31T00:59:39.369Z,12.01
2022-12-31T01:01:42.087Z,12.00
2022-12-31T01:03:44.148Z,12.02
2022-12-31T01:05:45.545Z,11.98
2022-12-31T01:07:46.973Z,12.01
2022-12-31T01:09:48.377Z,11.96
2022-12-31T01:11:51.382Z,11.98
2022-12-31T01:13:54.196Z,11.96
2022-12-31T01:15:55.657Z,11.95
2022-12-31T01:17:57.052Z,11.92
2022-12-31T01:19:58.418Z,11.90
2022-12-31T01:21:59.813Z,11.95
2022-12-31T01:24:01.221Z,11.95
2022-12-31T01:26:05.204Z,11.90
2022-12-31T01:28:06.693Z,11.92
2022-12-31T01:30:08.803Z,11.89
2022-12-31T01:32:10.189Z,11.92
2022-12-31T01:34:11.621Z,11.97
2022-12-31T01:36:26.264Z,11.98
2022-12-31T01:38:27.931Z,12.01
2022-12-31T01:40:29.402Z,12.01
2022-12-31T01:42:30.816Z,12.02
2022-12-31T01:44:32.141Z,12.03
2022-12-31T01:46:47.014Z,12.08
2022-12-31T01:48:52.724Z,12.07
2022-12-31T01:50:54.839Z,12.08
2022-12-31T01:53:00.571Z,12.13
2022-12-31T01:55:14.057Z,12.13
2022-12-31T01:57:16.434Z,12.13
2022-12-31T01:59:19.501Z,12.14
2022-12-31T02:01:30.862Z,12.17
2022-12-31T02:03:32.467Z,12.17
2022-12-31T02:05:46.272Z,12.19
2022-12-31T02:07:48.539Z,12.24
2022-12-31T02:09:50.533Z,12.28
2022-12-31T02:11:51.997Z,12.27
2022-12-31T02:13:58.519Z,12.30
2022-12-31T02:16:16.283Z,12.30
2022-12-31T02:18:17.645Z,12.31
2022-12-31T02:20:40.438Z,12.36
2022-12-31T02:23:00.102Z,12.40
2022-12-31T02:25:10.510Z,12.52
2022-12-31T02:27:32.802Z,12.56
2022-12-31T02:30:01.580Z,12.56
2022-12-31T02:32:24.672Z,12.60
2022-12-31T02:34:52.410Z,12.69
2022-12-31T02:36:56.964Z,12.67
2022-12-31T02:38:59.368Z,12.71
2022-12-31T02:41:01.230Z,12.75
2022-12-31T02:43:03.042Z,12.71
2022-12-31T02:45:04.825Z,12.76
2022-12-31T02:47:16.541Z,12.83
2022-12-31T02:49:49.238Z,12.91
2022-12-31T02:52:30.497Z,13.03
2022-12-31T02:55:02.776Z,13.04
2022-12-31T02:57:19.021Z,13.04
2022-12-31T02:59:53.238Z,13.04
2022-12-31T03:02:15.671Z,13.07
2022-12-31T03:04:33.621Z,13.04
2022-12-31T03:06:35.232Z,12.99
2022-12-31T03:08:56.605Z,13.12
2022-12-31T03:10:58.037Z,13.04
2022-12-31T03:13:27.207Z,12.99
2022-12-31T03:15:31.569Z,12.99
2022-12-31T03:17:34.454Z,13.04
2022-12-31T03:19:54.163Z,13.04
2022-12-31T03:22:13.868Z,13.02
2022-12-31T03:24:33.735Z,13.01
2022-12-31T03:26:35.743Z,13.01
2022-12-31T03:28:39.192Z,13.03
2022-12-31T03:30:43.326Z,13.03
2022-12-31T03:32:46.513Z,13.06
2022-12-31T03:34:48.011Z,13.08
2022-12-31T03:36:49.410Z,13.09
2022-12-31T03:38:52.795Z,13.06
2022-12-31T03:40:54.394Z,13.14
2022-12-31T03:42:56.398Z,13.07
2022-12-31T03:44:57.768Z,13.01
2022-12-31T03:46:59.162Z,13.06
2022-12-31T03:49:00.522Z,13.07
2022-12-31T03:51:01.884Z,13.08
2022-12-31T03:53:04.641Z,13.07
2022-12-31T03:55:07.043Z,13.11
2022-12-31T03:57:08.510Z,13.17
2022-12-31T03:59:09.923Z,13.11
2022-12-31T04:01:11.510Z,13.11
2022-12-31T04:03:13.040Z,13.14
2022-12-31T04:05:15.595Z,13.10
2022-12-31T04:07:17.085Z,13.15
2022-12-31T04:09:18.443Z,13.14
2022-12-31T04:11:21.133Z,13.19
2022-12-31T04:13:22.778Z,13.17
2022-12-31T04:15:24.147Z,13.20
2022-12-31T04:17:26.067Z,13.26
2022-12-31T04:19:27.492Z,13.29
2022-12-31T04:21:34.849Z,13.27
2022-12-31T04:23:36.625Z,13.28
2022-12-31T04:25:38.010Z,13.27
2022-12-31T04:27:40.857Z,13.28
2022-12-31T04:29:42.379Z,13.29
2022-12-31T04:31:43.777Z,13.27
2022-12-31T04:33:45.255Z,13.27
2022-12-31T04:35:46.677Z,13.27
2022-12-31T04:37:48.086Z,13.34
2022-12-31T04:39:49.509Z,13.37
2022-12-31T04:41:51.179Z,13.47
2022-12-31T04:43:57.669Z,13.41
2022-12-31T04:45:59.064Z,13.39
2022-12-31T04:48:00.441Z,13.34
2022-12-31T04:50:01.879Z,13.34
2022-12-31T04:52:03.336Z,13.42
2022-12-31T04:54:05.285Z,13.38
2022-12-31T04:56:07.832Z,13.32
2022-12-31T04:58:09.265Z,13.31
2022-12-31T05:00:11.124Z,13.39
2022-12-31T05:02:12.684Z,13.37
2022-12-31T05:04:14.322Z,13.47
2022-12-31T05:06:19.096Z,13.45
2022-12-31T05:08:21.075Z,13.47
2022-12-31T05:10:23.339Z,13.50
2022-12-31T05:12:24.729Z,13.59
2022-12-31T05:14:26.565Z,13.59
2022-12-31T05:16:28.050Z,13.61
2022-12-31T05:18:30.382Z,13.67
2022-12-31T05:20:31.927Z,13.61
2022-12-31T05:22:33.364Z,13.72
2022-12-31T05:24:34.788Z,13.65
2022-12-31T05:26:36.154Z,13.82
2022-12-31T05:28:37.534Z,13.82
2022-12-31T05:30:39.018Z,13.80
2022-12-31T05:32:40.490Z,13.84
2022-12-31T05:34:41.900Z,13.84
2022-12-31T05:36:43.268Z,13.87
2022-12-31T05:38:44.683Z,13.87
2022-12-31T05:40:46.087Z,14.08
2022-12-31T05:42:47.589Z,14.09
2022-12-31T05:44:49.230Z,13.99
2022-12-31T05:46:50.609Z,14.09
2022-12-31T05:48:52.072Z,14.19
2022-12-31T05:50:53.439Z,14.28
2022-12-31T05:52:54.861Z,14.30
2022-12-31T05:54:56.267Z,14.37
2022-12-31T05:56:57.853Z,14.32
2022-12-31T05:58:59.247Z,14.32
2022-12-31T06:01:00.707Z,14.36
2022-12-31T06:03:02.311Z,14.44
2022-12-31T06:05:04.284Z,14.39
2022-12-31T06:07:05.733Z,14.53
2022-12-31T06:09:07.284Z,14.63
2022-12-31T06:11:08.707Z,14.59
2022-12-31T06:13:10.122Z,14.58
2022-12-31T06:15:11.580Z,14.67
2022-12-31T06:17:13.151Z,14.65
2022-12-31T06:19:14.584Z,14.68
2022-12-31T06:21:16.491Z,14.71
2022-12-31T06:23:17.916Z,14.70
2022-12-31T06:25:19.415Z,14.84
2022-12-31T06:27:20.958Z,14.89
2022-12-31T06:29:22.324Z,14.93
2022-12-31T06:31:23.797Z,14.93
2022-12-31T06:33:25.223Z,14.89
2022-12-31T06:35:26.585Z,14.88
2022-12-31T06:37:28.169Z,14.92
2022-12-31T06:39:29.543Z,14.94
2022-12-31T06:41:31.604Z,14.94
2022-12-31T06:43:34.725Z,15.01
2022-12-31T06:45:36.128Z,15.05
2022-12-31T06:47:37.551Z,15.04
2022-12-31T06:49:40.711Z,15.11
2022-12-31T06:51:42.481Z,15.16
2022-12-31T06:53:45.721Z,15.18
2022-12-31T06:55:50.138Z,15.12
2022-12-31T06:57:52.288Z,15.20
2022-12-31T06:59:53.882Z,15.22
2022-12-31T07:01:58.147Z,15.27
2022-12-31T07:04:44.424Z,15.16
2022-12-31T07:06:54.519Z,15.24
2022-12-31T07:09:08.605Z,15.16
2022-12-31T07:11:28.805Z,15.30
2022-12-31T07:14:05.885Z,15.25
2022-12-31T07:16:20.996Z,15.33
2022-12-31T07:18:50.816Z,15.24
2022-12-31T07:20:52.539Z,15.25
2022-12-31T07:22:54.300Z,15.30
2022-12-31T07:24:55.941Z,15.26
2022-12-31T07:27:00.254Z,15.32
2022-12-31T07:29:19.750Z,15.34
2022-12-31T07:31:34.387Z,15.28
2022-12-31T07:33:50.489Z,15.33
2022-12-31T07:35:57.915Z,15.43
2022-12-31T07:38:12.675Z,15.45
2022-12-31T07:40:28.645Z,15.46
2022-12-31T07:42:44.898Z,15.40
2022-12-31T07:45:01.288Z,15.46
2022-12-31T07:47:05.196Z,15.46
2022-12-31T07:49:12.068Z,15.45
2022-12-31T07:51:13.786Z,15.54
2022-12-31T07:53:15.417Z,15.47
2022-12-31T07:55:16.795Z,15.51
2022-12-31T07:57:20.442Z,15.48
2022-12-31T07:59:33.799Z,15.44
2022-12-31T08:01:46.020Z,15.44
2022-12-31T08:04:02.696Z,15.40
2022-12-31T08:06:25.596Z,15.47
2022-12-31T08:08:32.960Z,15.52
2022-12-31T08:10:59.233Z,15.46
2022-12-31T08:13:04.179Z,15.46
2022-12-31T08:15:14.249Z,15.45
2022-12-31T08:17:17.996Z,15.52
2022-12-31T08:19:31.483Z,15.56
2022-12-31T08:21:46.042Z,15.57
2022-12-31T08:23:54.141Z,15.59
2022-12-31T08:26:07.584Z,15.57
2022-12-31T08:28:32.097Z,15.56
2022-12-31T08:30:56.777Z,15.69
2022-12-31T08:33:17.341Z,15.65
2022-12-31T08:35:25.065Z,15.75
2022-12-31T08:37:37.866Z,15.76
2022-12-31T08:40:00.825Z,15.72
2022-12-31T08:42:08.351Z,15.68
2022-12-31T08:44:34.562Z,15.70
2022-12-31T08:47:03.362Z,15.72
2022-12-31T08:49:05.036Z,15.77
2022-12-31T08:51:12.742Z,15.84
2022-12-31T08:53:14.363Z,15.82
2022-12-31T08:55:17.493Z,15.84
2022-12-31T08:57:40.713Z,15.89
2022-12-31T09:00:21.276Z,15.95
2022-12-31T09:02:44.692Z,15.87
2022-12-31T09:05:04.673Z,15.90
2022-12-31T09:07:08.007Z,15.94
2022-12-31T09:09:23.720Z,15.88
2022-12-31T09:11:47.497Z,15.90
2022-12-31T09:14:19.385Z,15.91
2022-12-31T09:16:27.241Z,15.89
2022-12-31T09:18:33.315Z,15.91
2022-12-31T09:20:44.330Z,15.89
2022-12-31T09:22:46.209Z,15.95
2022-12-31T09:24:48.287Z,15.94
2022-12-31T09:27:10.401Z,15.93
2022-12-31T09:29:17.783Z,15.96
2022-12-31T09:31:36.132Z,15.99
2022-12-31T09:33:55.508Z,16.00
2022-12-31T09:36:01.015Z,16.04
2022-12-31T09:38:16.597Z,16.02
2022-12-31T09:40:26.831Z,16.11
2022-12-31T09:43:03.294Z,16.03
2022-12-31T09:45:40.052Z,16.03
2022-12-31T09:48:09.363Z,16.13
2022-12-31T09:50:54.195Z,16.19
2022-12-31T09:53:26.512Z,16.19
2022-12-31T09:55:30.977Z,16.18
2022-12-31T09:57:56.226Z,16.17
2022-12-31T10:00:11.602Z,16.21
2022-12-31T10:02:13.087Z,16.27
2022-12-31T10:04:45.296Z,16.24
2022-12-31T10:07:10.632Z,16.24
2022-12-31T10:09:26.966Z,16.31
2022-12-31T10:11:31.374Z,16.32
2022-12-31T10:13:53.374Z,16.33
2022-12-31T10:16:21.244Z,16.33
2022-12-31T10:18:34.578Z,16.34
2022-12-31T10:21:16.604Z,16.33
2022-12-31T10:23:36.192Z,16.29
2022-12-31T10:25:38.803Z,16.37
2022-12-31T10:27:54.610Z,16.44
2022-12-31T10:30:03.497Z,16.44
2022-12-31T10:32:31.176Z,16.48
2022-12-31T10:35:10.348Z,16.45
2022-12-31T10:37:29.862Z,16.53
2022-12-31T10:39:35.237Z,16.58
2022-12-31T10:41:52.516Z,16.62
2022-12-31T10:44:24.932Z,16.58
2022-12-31T10:46:43.869Z,16.62
2022-12-31T10:48:57.306Z,16.63
2022-12-31T10:51:25.677Z,16.66
2022-12-31T10:53:54.422Z,16.60
2022-12-31T10:56:34.303Z,16.68
2022-12-31T10:59:18.973Z,16.68
2022-12-31T11:01:41.542Z,16.67
2022-12-31T11:04:13.993Z,16.66
2022-12-31T11:06:46.560Z,16.68
2022-12-31T11:09:12.432Z,16.69
2022-12-31T11:11:16.523Z,16.71
2022-12-31T11:13:50.240Z,16.79
2022-12-31T11:16:20.880Z,16.77
2022-12-31T11:18:47.398Z,16.75
2022-12-31T11:21:09.986Z,16.82
2022-12-31T11:23:55.825Z,16.88
2022-12-31T11:26:24.654Z,17.06
2022-12-31T11:29:19.514Z,17.12
2022-12-31T11:31:39.251Z,17.13
2022-12-31T11:34:13.850Z,17.18
2022-12-31T11:36:39.631Z,17.10
2022-12-31T11:38:50.847Z,16.99
2022-12-31T11:40:59.845Z,17.00
2022-12-31T11:43:11.667Z,16.98
2022-12-31T11:45:38.259Z,16.97
2022-12-31T11:48:28.462Z,16.92
2022-12-31T11:50:13.001Z,16.90
2022-12-31T11:52:36.682Z,16.91
2022-12-31T11:55:03.371Z,16.84
2022-12-31T11:57:12.228Z,16.87
2022-12-31T11:59:19.430Z,16.80
2022-12-31T12:02:10.090Z,16.84
2022-12-31T12:04:11.700Z,16.78
2022-12-31T12:06:16.075Z,16.75
2022-12-31T12:08:17.758Z,16.76
2022-12-31T12:10:29.132Z,16.69
2022-12-31T12:12:43.642Z,16.79
2022-12-31T12:14:49.181Z,16.79
2022-12-31T12:17:00.858Z,16.76
2022-12-31T12:19:07.905Z,16.79
2022-12-31T12:21:28.541Z,16.72
2022-12-31T12:23:30.046Z,16.70
2022-12-31T12:25:40.196Z,16.67
2022-12-31T12:27:42.210Z,16.67
2022-12-31T12:29:43.644Z,16.64
2022-12-31T12:32:22.168Z,16.59
2022-12-31T12:34:36.378Z,16.47
2022-12-31T12:36:47.019Z,16.46
2022-12-31T12:38:49.070Z,16.47
2022-12-31T12:41:05.799Z,16.40
2022-12-31T12:43:22.039Z,16.60
2022-12-31T12:45:28.068Z,16.50
2022-12-31T12:47:30.861Z,16.48
2022-12-31T12:49:39.553Z,16.37
2022-12-31T12:51:46.812Z,16.27
2022-12-31T12:53:58.587Z,16.14
2022-12-31T12:56:33.702Z,16.05
2022-12-31T12:59:00.825Z,15.99
2022-12-31T13:01:07.724Z,15.94
2022-12-31T13:03:26.638Z,15.89
2022-12-31T13:05:40.081Z,15.94
2022-12-31T13:08:04.534Z,15.82
2022-12-31T13:10:22.265Z,15.78
2022-12-31T13:13:22.189Z,15.81
2022-12-31T13:15:15.837Z,15.86
2022-12-31T13:17:34.957Z,15.78
2022-12-31T13:20:07.355Z,15.69
2022-12-31T13:22:19.032Z,15.63
2022-12-31T13:24:45.446Z,15.69
2022-12-31T13:27:11.931Z,15.62
2022-12-31T13:29:21.166Z,15.65
2022-12-31T13:31:31.848Z,15.65
2022-12-31T13:33:38.344Z,15.57
2022-12-31T13:36:02.684Z,15.44
2022-12-31T13:38:31.979Z,15.47
2022-12-31T13:40:58.028Z,15.38
2022-12-31T13:43:32.921Z,15.33
2022-12-31T13:45:42.075Z,15.33
2022-12-31T13:47:52.596Z,15.25
2022-12-31T13:50:15.205Z,15.23
2022-12-31T13:52:28.581Z,15.20
2022-12-31T13:54:41.097Z,15.17
2022-12-31T13:56:45.481Z,15.18
2022-12-31T13:58:54.371Z,15.14
2022-12-31T14:01:02.966Z,15.25
2022-12-31T14:03:23.001Z,15.24
2022-12-31T14:05:36.496Z,15.36
2022-12-31T14:07:51.455Z,15.54
2022-12-31T14:09:52.928Z,15.50
2022-12-31T14:12:09.339Z,15.44
2022-12-31T14:14:18.934Z,15.40
2022-12-31T14:16:46.386Z,15.37
2022-12-31T14:19:02.351Z,15.32
2022-12-31T14:21:14.095Z,15.36
2022-12-31T14:23:42.840Z,15.34
2022-12-31T14:25:49.663Z,15.35
2022-12-31T14:27:54.152Z,15.37
2022-12-31T14:30:13.200Z,15.43
2022-12-31T14:32:26.415Z,15.38
2022-12-31T14:34:54.159Z,15.35
2022-12-31T14:37:13.559Z,15.30
2022-12-31T14:39:39.457Z,15.32
2022-12-31T14:42:12.352Z,15.23
2022-12-31T14:44:54.787Z,15.17
2022-12-31T14:47:30.675Z,15.15
2022-12-31T14:49:38.665Z,15.17
2022-12-31T14:51:40.105Z,15.08
2022-12-31T14:53:52.339Z,15.13
2022-12-31T14:56:04.116Z,15.18
2022-12-31T14:58:36.515Z,15.05
2022-12-31T15:00:39.710Z,15.01
2022-12-31T15:02:50.060Z,14.95
2022-12-31T15:04:52.073Z,14.99
2022-12-31T15:07:16.571Z,14.94
2022-12-31T15:09:34.835Z,15.00
2022-12-31T15:12:21.070Z,14.89
2022-12-31T15:14:44.343Z,14.79
2022-12-31T15:17:33.511Z,14.81
2022-12-31T15:19:49.916Z,14.76
2022-12-31T15:21:56.119Z,14.72
2022-12-31T15:23:57.749Z,14.69
2022-12-31T15:26:01.046Z,14.67
2022-12-31T15:28:05.725Z,14.66
2022-12-31T15:30:29.745Z,14.62
2022-12-31T15:32:41.429Z,14.56
2022-12-31T15:34:42.822Z,14.54
2022-12-31T15:36:53.600Z,14.52
2022-12-31T15:39:38.289Z,14.48
2022-12-31T15:42:10.099Z,14.45
2022-12-31T15:44:18.496Z,14.43
2022-12-31T15:46:25.711Z,14.41
2022-12-31T15:48:36.173Z,14.41
2022-12-31T15:50:39.399Z,14.45
2022-12-31T15:52:47.991Z,14.52
2022-12-31T15:54:54.078Z,14.53
2022-12-31T15:56:55.481Z,14.42
2022-12-31T15:58:59.550Z,14.35
2022-12-31T16:01:37.037Z,14.38
2022-12-31T16:03:44.758Z,14.56
2022-12-31T16:05:46.176Z,14.54
2022-12-31T16:07:47.989Z,14.46
2022-12-31T16:09:55.390Z,14.47
2022-12-31T16:11:59.066Z,14.48
2022-12-31T16:14:00.618Z,14.56
2022-12-31T16:16:08.148Z,14.57
2022-12-31T16:18:20.617Z,14.60
2022-12-31T16:20:26.914Z,14.60
2022-12-31T16:22:29.806Z,14.53
2022-12-31T16:24:33.155Z,14.50
2022-12-31T16:26:45.388Z,14.41
2022-12-31T16:28:48.782Z,14.44
2022-12-31T16:31:04.457Z,14.40
2022-12-31T16:33:11.357Z,14.47
2022-12-31T16:35:31.341Z,14.48
2022-12-31T16:37:32.766Z,14.37
2022-12-31T16:39:36.079Z,14.45
2022-12-31T16:41:43.125Z,14.41
2022-12-31T16:43:46.510Z,14.47
2022-12-31T16:45:48.578Z,14.44
2022-12-31T16:47:50.927Z,14.44
2022-12-31T16:50:17.097Z,14.35
2022-12-31T16:52:33.630Z,14.38
2022-12-31T16:54:43.623Z,14.35
2022-12-31T16:56:45.261Z,14.34
2022-12-31T16:58:46.908Z,14.30
2022-12-31T17:00:50.716Z,14.21
2022-12-31T17:03:18.378Z,14.25
2022-12-31T17:05:25.223Z,14.27
2022-12-31T17:07:32.547Z,14.28
2022-12-31T17:09:37.704Z,14.28
2022-12-31T17:11:45.390Z,14.27
2022-12-31T17:14:05.207Z,14.38
2022-12-31T17:16:06.827Z,14.31
2022-12-31T17:18:17.257Z,14.24
2022-12-31T17:20:27.770Z,14.20
2022-12-31T17:22:36.774Z,14.23
2022-12-31T17:24:39.621Z,14.28
2022-12-31T17:26:41.065Z,14.17
2022-12-31T17:28:46.609Z,14.13
2022-12-31T17:30:48.259Z,14.17
2022-12-31T17:32:51.639Z,14.14
2022-12-31T17:34:54.634Z,14.18
2022-12-31T17:37:11.590Z,14.21
2022-12-31T17:39:21.003Z,14.17
2022-12-31T17:41:27.311Z,14.21
2022-12-31T17:43:33.116Z,14.33
2022-12-31T17:45:37.960Z,14.16
2022-12-31T17:47:41.551Z,14.17
2022-12-31T17:49:46.450Z,14.22
2022-12-31T17:51:48.183Z,14.29
2022-12-31T17:53:49.667Z,14.35
2022-12-31T17:55:53.386Z,14.20
2022-12-31T17:57:56.925Z,14.21
2022-12-31T17:59:58.667Z,14.22
2022-12-31T18:02:02.792Z,14.24
2022-12-31T18:04:09.911Z,14.29
2022-12-31T18:06:16.493Z,14.25
2022-12-31T18:08:18.573Z,14.34
2022-12-31T18:10:22.743Z,14.25
2022-12-31T18:12:24.372Z,14.18
2022-12-31T18:14:25.809Z,14.24
2022-12-31T18:16:27.382Z,14.22
2022-12-31T18:18:33.628Z,14.23
2022-12-31T18:20:35.096Z,14.25
2022-12-31T18:22:37.546Z,14.23
2022-12-31T18:24:39.210Z,14.18
2022-12-31T18:26:41.997Z,14.18
2022-12-31T18:28:44.017Z,14.19
2022-12-31T18:30:46.517Z,14.26
2022-12-31T18:32:48.940Z,14.17
2022-12-31T18:34:51.081Z,14.20
2022-12-31T18:36:52.908Z,14.22
2022-12-31T18:38:54.762Z,14.19
2022-12-31T18:40:59.061Z,14.12
2022-12-31T18:43:04.884Z,14.11
2022-12-31T18:45:16.416Z,14.11
2022-12-31T18:47:19.761Z,14.27
2022-12-31T18:49:21.316Z,14.11
2022-12-31T18:51:31.401Z,14.18
2022-12-31T18:53:33.681Z,14.10
2022-12-31T18:55:41.320Z,14.15
2022-12-31T18:57:42.692Z,14.02
2022-12-31T18:59:44.262Z,14.05
2022-12-31T19:01:45.756Z,14.07
2022-12-31T19:03:47.238Z,14.03
2022-12-31T19:05:50.728Z,14.05
2022-12-31T19:07:52.278Z,14.08
2022-12-31T19:09:58.333Z,14.13
2022-12-31T19:12:00.213Z,14.13
2022-12-31T19:14:18.979Z,14.14
2022-12-31T19:16:20.442Z,14.19
2022-12-31T19:18:21.868Z,14.14
2022-12-31T19:20:23.921Z,14.05
2022-12-31T19:22:25.359Z,14.12
2022-12-31T19:24:27.805Z,14.15
2022-12-31T19:26:29.721Z,14.15
2022-12-31T19:28:31.126Z,14.15
2022-12-31T19:30:34.118Z,14.02
2022-12-31T19:32:35.487Z,14.05
2022-12-31T19:34:36.907Z,14.19
2022-12-31T19:36:43.882Z,14.14
2022-12-31T19:38:46.388Z,14.04
2022-12-31T19:40:48.629Z,14.10
2022-12-31T19:42:51.720Z,14.03
2022-12-31T19:44:53.106Z,14.06
2022-12-31T19:46:54.483Z,14.10
2022-12-31T19:48:55.957Z,14.14
2022-12-31T19:50:57.362Z,14.08
2022-12-31T19:52:59.306Z,14.11
2022-12-31T19:55:00.661Z,14.11
2022-12-31T19:57:02.178Z,14.15
2022-12-31T19:59:05.638Z,14.13
2022-12-31T20:01:09.343Z,14.15
2022-12-31T20:03:11.719Z,14.05
2022-12-31T20:05:15.231Z,14.01
2022-12-31T20:07:18.799Z,13.99
2022-12-31T20:09:23.577Z,13.98
2022-12-31T20:11:25.174Z,13.88
2022-12-31T20:13:26.910Z,13.93
2022-12-31T20:15:28.511Z,14.07
2022-12-31T20:17:29.935Z,14.01
2022-12-31T20:19:31.371Z,13.95
2022-12-31T20:21:32.759Z,13.95
2022-12-31T20:23:34.874Z,13.92
2022-12-31T20:25:36.264Z,13.94
2022-12-31T20:27:38.433Z,13.92
2022-12-31T20:29:39.890Z,13.95
2022-12-31T20:31:41.246Z,13.91
2022-12-31T20:33:42.852Z,13.88
2022-12-31T20:35:44.290Z,13.86
2022-12-31T20:37:46.051Z,13.86
2022-12-31T20:39:47.459Z,13.92
2022-12-31T20:41:49.057Z,13.82
2022-12-31T20:43:50.647Z,13.89
2022-12-31T20:45:52.099Z,13.90
2022-12-31T20:47:53.531Z,13.99
2022-12-31T20:50:11.700Z,14.00
2022-12-31T20:52:13.778Z,13.99
2022-12-31T20:54:15.353Z,14.05
2022-12-31T20:56:17.956Z,13.95
2022-12-31T20:58:19.387Z,13.98
2022-12-31T21:00:20.854Z,14.01
2022-12-31T21:02:29.616Z,14.06
2022-12-31T21:04:41.349Z,14.01
2022-12-31T21:06:42.889Z,14.01
2022-12-31T21:08:44.372Z,13.93
2022-12-31T21:10:48.432Z,13.88
2022-12-31T21:12:53.265Z,13.82
2022-12-31T21:14:54.971Z,13.97
2022-12-31T21:16:56.368Z,13.96
2022-12-31T21:18:58.036Z,13.88
2022-12-31T21:21:00.487Z,13.96
2022-12-31T21:23:01.912Z,13.95
2022-12-31T21:25:03.731Z,14.03
2022-12-31T21:27:05.826Z,14.03
2022-12-31T21:29:07.201Z,14.12
2022-12-31T21:31:10.447Z,14.00
2022-12-31T21:33:11.851Z,14.07
2022-12-31T21:37:58.257Z,14.08
2022-12-31T21:39:55.975Z,14.03
2022-12-31T21:41:57.427Z,13.99
2022-12-31T21:43:58.917Z,14.12
2022-12-31T21:46:05.437Z,13.99
2022-12-31T21:48:25.918Z,14.03
2022-12-31T21:50:27.291Z,13.99
2022-12-31T21:52:33.880Z,13.94
2022-12-31T21:54:53.707Z,14.07
2022-12-31T21:56:55.093Z,14.10
2022-12-31T21:59:18.523Z,14.06
2022-12-31T22:01:40.626Z,14.19
2022-12-31T22:03:42.575Z,14.21
2022-12-31T22:05:53.241Z,14.18
2022-12-31T22:07:54.634Z,14.11
2022-12-31T22:09:56.121Z,14.08
2022-12-31T22:11:57.512Z,14.06
2022-12-31T22:13:58.927Z,14.15
2022-12-31T22:16:05.278Z,14.08
2022-12-31T22:18:07.275Z,14.15
2022-12-31T22:20:26.368Z,14.09
2022-12-31T22:22:29.180Z,14.05
2022-12-31T22:24:30.536Z,14.06
2022-12-31T22:26:31.911Z,14.08
2022-12-31T22:28:39.572Z,14.10
2022-12-31T22:30:41.483Z,14.25
2022-12-31T22:32:42.957Z,14.23
2022-12-31T22:34:44.450Z,14.23
2022-12-31T22:36:45.897Z,14.19
2022-12-31T22:38:49.192Z,14.20
2022-12-31T22:40:50.529Z,14.16
2022-12-31T22:42:51.909Z,14.11
2022-12-31T22:44:53.302Z,14.20
2022-12-31T22:46:56.083Z,14.15
2022-12-31T22:48:59.124Z,14.21
2022-12-31T22:51:00.538Z,14.27
2022-12-31T22:53:01.947Z,14.17
2022-12-31T22:55:03.697Z,14.24
2022-12-31T22:57:05.088Z,14.26
2022-12-31T22:59:06.505Z,14.22
2022-12-31T23:01:14.423Z,14.32
2022-12-31T23:03:15.937Z,14.39
2022-12-31T23:05:17.352Z,14.36
2022-12-31T23:07:18.806Z,14.47
2022-12-31T23:09:38.782Z,14.43
2022-12-31T23:11:40.892Z,14.37
2022-12-31T23:14:01.536Z,14.36
2022-12-31T23:16:22.009Z,14.36
2022-12-31T23:18:42.080Z,14.35
2022-12-31T23:21:01.946Z,14.34
2022-12-31T23:23:12.776Z,14.34
2022-12-31T23:25:14.200Z,14.41
2022-12-31T23:27:15.606Z,14.41
2022-12-31T23:29:17.046Z,14.40
2022-12-31T23:31:18.402Z,14.49
2022-12-31T23:33:25.062Z,14.54
2022-12-31T23:35:26.561Z,14.51
2022-12-31T23:37:27.967Z,14.52
2022-12-31T23:39:29.750Z,14.55
2022-12-31T23:41:31.205Z,14.48
2022-12-31T23:43:32.580Z,14.54
2022-12-31T23:45:34.740Z,14.56
2022-12-31T23:47:37.305Z,14.54
2022-12-31T23:49:38.647Z,14.57
2022-12-31T23:51:40.227Z,14.60
2022-12-31T23:53:41.737Z,14.63
2022-12-31T23:55:43.091Z,14.66
2022-12-31T23:57:44.585Z,14.60
2022-12-31T23:59:46.012Z,14.54
